Time;durP1;ratioP1;P1;durP2;ratioP2;P2;SDS_P1;SDS_P2;PMS_P1;PMS_P2;Temp;Humidity;BMP_temperature;BMP_pressure;BME280_temperature;BME280_humidity;BME280_pressure;Samples;Min_cycle;Max_cycle;Signal;HPM_P1;HPM_P2
2022/04/24 00:01:30;;;;;;;4.75;3.03;;;282.20;2278.40;;;;;;5032355;28;20025;-55
2022/04/24 00:03:56;;;;;;;4.93;3.55;;;282.20;2278.40;;;;;;5032300;28;20088;-57
2022/04/24 00:06:22;;;;;;;8.35;3.83;;;282.30;2278.40;;;;;;5032307;28;20029;-57
2022/04/24 00:08:49;;;;;;;5.00;3.65;;;282.20;2278.40;;;;;;5032127;28;20029;-56
2022/04/24 00:11:16;;;;;;;5.93;3.58;;;282.20;2278.40;;;;;;5032046;28;20028;-56
2022/04/24 00:13:42;;;;;;;4.93;3.42;;;282.30;2278.40;;;;;;5032189;28;20025;-57
2022/04/24 00:16:09;;;;;;;5.82;3.97;;;282.30;2278.40;;;;;;5032131;28;20018;-56
2022/04/24 00:18:37;;;;;;;5.57;3.55;;;282.20;2278.40;;;;;;5032108;28;20026;-58
2022/04/24 00:21:04;;;;;;;5.95;3.30;;;282.10;2278.40;;;;;;5031945;28;20037;-56
2022/04/24 00:23:31;;;;;;;5.60;3.42;;;282.20;2278.40;;;;;;5032023;28;20021;-56
2022/04/24 00:25:57;;;;;;;4.20;2.97;;;282.10;2278.40;;;;;;5031845;28;20100;-57
2022/04/24 00:28:23;;;;;;;3.67;2.58;;;282.20;2278.40;;;;;;5032197;28;20021;-58
2022/04/24 00:30:48;;;;;;;4.80;3.15;;;282.30;2278.40;;;;;;5031775;28;20491;-56
2022/04/24 00:33:14;;;;;;;6.43;3.20;;;282.40;2278.40;;;;;;5031624;28;20097;-55
2022/04/24 00:35:40;;;;;;;4.43;2.53;;;282.30;2278.40;;;;;;5031713;28;20199;-56
2022/04/24 00:38:06;;;;;;;4.20;3.08;;;282.20;2278.40;;;;;;5031522;28;20470;-58
2022/04/24 00:40:32;;;;;;;4.50;2.90;;;282.00;2278.40;;;;;;5031470;28;20558;-58
2022/04/24 00:42:58;;;;;;;6.68;2.88;;;282.10;2278.40;;;;;;5031497;28;20022;-57
2022/04/24 00:45:23;;;;;;;4.75;3.00;;;282.20;2278.40;;;;;;5031894;28;20044;-53
2022/04/24 00:47:49;;;;;;;3.42;2.85;;;282.20;2278.40;;;;;;5030882;28;20114;-57
2022/04/24 00:50:16;;;;;;;5.50;3.53;;;282.10;2278.40;;;;;;5031276;28;20025;-57
2022/04/24 00:52:42;;;;;;;4.57;3.05;;;281.90;2278.40;;;;;;5031295;28;20022;-56
2022/04/24 00:55:08;;;;;;;4.80;3.03;;;281.90;2278.40;;;;;;5031321;28;20029;-56
2022/04/24 00:57:33;;;;;;;4.78;2.78;;;281.90;2278.40;;;;;;5032051;28;20083;-57
2022/04/24 01:00:00;;;;;;;3.75;2.65;;;282.00;2278.40;;;;;;5032756;28;20523;-56
2022/04/24 01:02:25;;;;;;;3.78;2.80;;;282.00;2278.40;;;;;;5032609;28;20034;-57
2022/04/24 01:04:51;;;;;;;3.42;2.33;;;282.00;2278.40;;;;;;5032775;28;20058;-57
2022/04/24 01:07:17;;;;;;;3.83;2.20;;;281.80;2278.40;;;;;;5032370;28;20025;-56
2022/04/24 01:09:43;;;;;;;3.22;2.22;;;281.70;2278.40;;;;;;5032577;28;20396;-57
2022/04/24 01:12:09;;;;;;;3.30;2.05;;;281.70;2278.40;;;;;;5031010;28;20044;-56
2022/04/24 01:14:35;;;;;;;3.38;2.40;;;281.70;2278.40;;;;;;5032519;28;20068;-56
2022/04/24 01:17:03;;;;;;;3.45;2.35;;;281.70;2278.40;;;;;;5032417;28;20048;-56
2022/04/24 01:19:29;;;;;;;3.15;2.03;;;281.70;2278.40;;;;;;5032253;28;20041;-56
2022/04/24 01:21:56;;;;;;;2.65;1.60;;;281.70;2278.40;;;;;;5032175;28;20033;-56
2022/04/24 01:24:27;;;;;;;3.80;2.50;;;281.70;2278.40;;;;;;5032363;28;20101;-57
2022/04/24 01:26:53;;;;;;;2.67;1.60;;;281.70;2278.40;;;;;;5032384;28;20040;-57
2022/04/24 01:29:19;;;;;;;2.95;1.95;;;281.80;2278.40;;;;;;5032227;28;20586;-56
2022/04/24 01:31:46;;;;;;;4.22;2.00;;;281.70;2278.40;;;;;;5032003;28;20060;-57
2022/04/24 01:34:12;;;;;;;4.03;2.30;;;281.70;2278.40;;;;;;5031969;28;20108;-56
2022/04/24 01:36:38;;;;;;;4.30;2.38;;;281.80;2278.40;;;;;;5032080;28;20033;-55
2022/04/24 01:39:07;;;;;;;3.47;2.45;;;281.80;2278.40;;;;;;5032008;28;20808;-56
2022/04/24 01:41:34;;;;;;;3.13;2.50;;;281.80;2278.40;;;;;;5032208;28;20029;-53
2022/04/24 01:43:59;;;;;;;4.50;2.60;;;281.70;2278.40;;;;;;5031994;28;20033;-57
2022/04/24 01:46:25;;;;;;;3.53;2.25;;;281.70;2278.40;;;;;;5031859;28;20033;-55
2022/04/24 01:48:51;;;;;;;4.10;2.20;;;281.70;2278.40;;;;;;5032098;28;20036;-57
2022/04/24 01:51:17;;;;;;;3.58;2.30;;;281.70;2278.40;;;;;;5031588;28;20025;-56
2022/04/24 01:53:44;;;;;;;2.38;1.80;;;281.60;2278.40;;;;;;5031699;28;20101;-57
2022/04/24 01:56:11;;;;;;;4.20;2.00;;;281.70;2278.40;;;;;;5032028;28;20384;-57
2022/04/24 01:58:38;;;;;;;4.00;2.03;;;281.90;2278.40;;;;;;5031500;28;20493;-55
2022/04/24 02:01:05;;;;;;;3.58;2.08;;;281.90;2278.40;;;;;;5031539;28;20124;-57
2022/04/24 02:03:32;;;;;;;2.20;1.52;;;281.90;2278.40;;;;;;5031589;28;20037;-57
2022/04/24 02:05:58;;;;;;;3.72;1.70;;;282.00;2278.40;;;;;;5031332;28;20056;-56
2022/04/24 02:08:24;;;;;;;2.53;1.50;;;281.90;2278.40;;;;;;5031404;28;20017;-57
2022/04/24 02:10:50;;;;;;;3.80;2.20;;;281.80;2278.40;;;;;;5031342;28;20056;-57
2022/04/24 02:13:17;;;;;;;2.08;1.40;;;281.70;2278.40;;;;;;5031432;28;20411;-57
2022/04/24 02:15:43;;;;;;;3.45;2.13;;;281.70;2278.40;;;;;;5031610;28;20033;-57
2022/04/24 02:18:09;;;;;;;3.90;2.13;;;281.70;2278.40;;;;;;5031195;28;20030;-58
2022/04/24 02:20:35;;;;;;;2.97;1.88;;;281.70;2278.40;;;;;;5030952;28;20116;-56
2022/04/24 02:23:01;;;;;;;3.17;2.08;;;281.70;2278.40;;;;;;5031251;28;20026;-58
2022/04/24 02:25:28;;;;;;;3.22;1.92;;;281.60;2278.40;;;;;;5030993;28;20029;-57
2022/04/24 02:27:55;;;;;;;3.38;1.75;;;281.60;2278.40;;;;;;5031265;28;20025;-57
2022/04/24 02:30:22;;;;;;;3.47;1.90;;;256.90;2252.80;;;;;;5031131;28;20018;-57
2022/04/24 02:32:48;;;;;;;3.25;1.85;;;281.60;2278.40;;;;;;5030878;28;20083;-55
2022/04/24 02:35:14;;;;;;;6.75;1.90;;;281.70;2278.40;;;;;;5031011;28;20144;-56
2022/04/24 02:37:40;;;;;;;4.70;2.15;;;281.70;2278.40;;;;;;5030880;28;20025;-57
2022/04/24 02:40:10;;;;;;;2.00;1.50;;;281.70;2278.40;;;;;;5030676;28;20080;-57
2022/04/24 02:42:39;;;;;;;2.70;1.90;;;281.60;2278.40;;;;;;5030628;28;20438;-57
2022/04/24 02:45:08;;;;;;;3.72;2.15;;;281.70;2278.40;;;;;;5030598;28;20452;-56
2022/04/24 02:47:35;;;;;;;3.28;1.88;;;281.80;2278.40;;;;;;5030790;28;20029;-56
2022/04/24 02:50:01;;;;;;;2.42;1.50;;;281.70;2278.40;;;;;;5030720;28;20018;-57
2022/04/24 02:52:27;;;;;;;3.20;1.90;;;281.70;2278.40;;;;;;5030467;28;20029;-57
2022/04/24 02:54:53;;;;;;;2.25;1.50;;;281.60;2278.40;;;;;;5030995;28;20026;-57
2022/04/24 02:57:20;;;;;;;3.60;1.90;;;281.60;2278.40;;;;;;5030761;28;20029;-57
2022/04/24 02:59:48;;;;;;;4.35;1.70;;;281.60;2278.40;;;;;;5030541;28;20029;-58
2022/04/24 03:02:14;;;;;;;2.15;1.50;;;281.70;2278.40;;;;;;5030353;28;20480;-55
2022/04/24 03:04:40;;;;;;;2.80;1.80;;;281.80;2278.40;;;;;;5030240;28;20030;-58
2022/04/24 03:07:06;;;;;;;2.67;1.60;;;281.90;2278.40;;;;;;5030258;28;20388;-57
2022/04/24 03:09:33;;;;;;;1.50;1.33;;;281.90;2278.40;;;;;;5030059;28;20032;-57
2022/04/24 03:11:58;;;;;;;3.35;1.67;;;281.90;2278.40;;;;;;5030195;28;20535;-58
2022/04/24 03:14:24;;;;;;;2.83;1.70;;;282.00;2278.40;;;;;;5030414;28;20100;-57
2022/04/24 03:16:50;;;;;;;2.75;1.33;;;282.00;2278.40;;;;;;5030498;28;20021;-58
2022/04/24 03:19:16;;;;;;;3.72;1.40;;;282.00;2278.40;;;;;;5030188;28;20029;-57
2022/04/24 03:21:41;;;;;;;3.53;1.48;;;282.00;2278.40;;;;;;5030289;28;20034;-59
2022/04/24 03:24:07;;;;;;;2.95;1.50;;;282.00;2278.40;;;;;;5030016;28;20105;-56
2022/04/24 03:26:33;;;;;;;2.03;1.48;;;281.80;2278.40;;;;;;5030667;28;20021;-57
2022/04/24 03:28:58;;;;;;;3.95;1.63;;;281.80;2278.40;;;;;;5029987;28;20079;-57
2022/04/24 03:31:24;;;;;;;1.65;1.08;;;282.00;2278.40;;;;;;5030327;28;20060;-56
2022/04/24 03:33:52;;;;;;;3.47;1.75;;;282.00;2278.40;;;;;;5029776;28;20124;-55
2022/04/24 03:36:18;;;;;;;1.75;1.30;;;282.00;2278.40;;;;;;5029889;28;20456;-57
2022/04/24 03:38:44;;;;;;;3.40;2.72;;;282.20;2278.40;;;;;;5029683;28;20033;-55
2022/04/24 03:41:10;;;;;;;4.35;2.33;;;282.10;2278.40;;;;;;5030211;28;20459;-57
2022/04/24 03:43:36;;;;;;;8.60;4.45;;;282.10;2278.40;;;;;;5030045;28;20045;-56
2022/04/24 03:46:03;;;;;;;5.28;3.60;;;282.10;2278.40;;;;;;5030083;28;20486;-56
2022/04/24 03:48:29;;;;;;;5.30;3.13;;;282.00;2278.40;;;;;;5030279;28;20026;-56
2022/04/24 03:50:54;;;;;;;4.20;2.72;;;281.90;2278.40;;;;;;5030312;28;20021;-57
2022/04/24 03:53:20;;;;;;;3.70;2.38;;;281.90;2278.40;;;;;;5029918;28;20473;-56
2022/04/24 03:55:46;;;;;;;4.80;2.58;;;281.90;2278.40;;;;;;5030158;28;20129;-57
2022/04/24 03:58:12;;;;;;;3.38;1.92;;;281.80;2278.40;;;;;;5029881;28;20502;-58
2022/04/24 04:00:37;;;;;;;3.10;1.88;;;281.90;2278.40;;;;;;5029616;28;20049;-56
2022/04/24 04:03:03;;;;;;;3.25;1.95;;;281.90;2278.40;;;;;;5029990;28;20032;-57
2022/04/24 04:05:29;;;;;;;5.35;3.10;;;281.90;2278.40;;;;;;5029836;28;20376;-57
2022/04/24 04:07:56;;;;;;;3.65;2.30;;;282.00;2278.40;;;;;;5029772;28;20048;-57
2022/04/24 04:10:22;;;;;;;6.15;3.45;;;282.10;2278.40;;;;;;5029881;28;20029;-55
2022/04/24 04:12:50;;;;;;;3.97;2.78;;;282.10;2278.40;;;;;;5029591;28;20475;-56
2022/04/24 04:15:16;;;;;;;6.25;3.40;;;282.20;2278.40;;;;;;5029564;28;20612;-58
2022/04/24 04:17:42;;;;;;;4.68;3.10;;;282.20;2278.40;;;;;;5029783;28;20025;-57
2022/04/24 04:20:11;;;;;;;5.57;3.20;;;282.40;2278.40;;;;;;5029620;28;20018;-57
2022/04/24 04:22:51;;;;;;;5.38;3.47;;;282.40;2278.40;;;;;;5031450;28;20063;-57
2022/04/24 04:25:18;;;;;;;4.68;3.05;;;282.50;2278.40;;;;;;5033352;28;20487;-57
2022/04/24 04:27:44;;;;;;;4.28;3.20;;;282.30;2278.40;;;;;;5033824;28;20368;-57
2022/04/24 04:30:10;;;;;;;4.95;3.17;;;282.50;2278.40;;;;;;5033463;28;20029;-56
2022/04/24 04:32:36;;;;;;;4.80;2.90;;;307.20;2304.00;;;;;;5033228;28;20376;-57
2022/04/24 04:35:04;;;;;;;3.78;2.53;;;307.20;2304.00;;;;;;5033294;28;20045;-57
2022/04/24 04:37:31;;;;;;;3.85;3.03;;;307.40;2304.00;;;;;;5033167;28;20109;-57
2022/04/24 04:39:57;;;;;;;3.67;2.83;;;307.60;2304.00;;;;;;5033076;28;20124;-58
2022/04/24 04:42:23;;;;;;;4.80;2.72;;;307.70;2304.00;;;;;;5033210;28;20079;-57
2022/04/24 04:44:49;;;;;;;4.03;2.58;;;307.70;2304.00;;;;;;5033117;28;20112;-56
2022/04/24 04:47:15;;;;;;;5.03;3.22;;;307.80;2304.00;;;;;;5032993;28;20380;-56
2022/04/24 04:49:40;;;;;;;6.32;2.67;;;308.00;2304.00;;;;;;5033031;28;20029;-56
2022/04/24 04:52:07;;;;;;;4.07;2.42;;;308.10;2304.00;;;;;;5032779;28;20025;-56
2022/04/24 04:54:34;;;;;;;8.75;4.40;;;332.90;2329.60;;;;;;5033127;28;20026;-56
2022/04/24 04:57:00;;;;;;;4.35;3.10;;;332.90;2329.60;;;;;;5032978;28;20120;-56
2022/04/24 04:59:25;;;;;;;5.55;3.85;;;332.90;2329.60;;;;;;5032871;28;20116;-54
2022/04/24 05:01:51;;;;;;;4.93;3.35;;;332.90;2329.60;;;;;;5032792;28;20033;-57
2022/04/24 05:04:17;;;;;;;4.93;3.17;;;333.20;2329.60;;;;;;5032540;28;20389;-56
2022/04/24 05:06:42;;;;;;;4.60;2.85;;;333.40;2329.60;;;;;;5032684;28;20064;-55
2022/04/24 05:09:08;;;;;;;3.45;2.88;;;333.50;2329.60;;;;;;5032390;28;20403;-56
2022/04/24 05:11:34;;;;;;;3.88;3.03;;;333.70;2329.60;;;;;;5032527;28;20032;-57
2022/04/24 05:13:59;;;;;;;6.97;4.30;;;333.60;2329.60;;;;;;5032767;28;20029;-57
2022/04/24 05:16:25;;;;;;;6.50;3.97;;;333.70;2329.60;;;;;;5032551;28;20029;-57
2022/04/24 05:18:51;;;;;;;5.05;3.30;;;358.50;2329.60;;;;;;5032616;28;20021;-57
2022/04/24 05:21:17;;;;;;;8.18;4.10;;;358.70;2329.60;;;;;;5032155;28;20044;-57
2022/04/24 05:23:45;;;;;;;8.68;3.97;;;358.70;2329.60;;;;;;5032330;28;20511;-56
2022/04/24 05:26:12;;;;;;;5.75;4.03;;;358.80;2329.60;;;;;;5032226;28;20049;-57
2022/04/24 05:28:38;;;;;;;6.22;4.95;;;359.00;2329.60;;;;;;5032003;28;20105;-56
2022/04/24 05:31:05;;;;;;;7.05;5.10;;;359.20;2329.60;;;;;;5032225;28;20121;-57
2022/04/24 05:33:31;;;;;;;4.60;3.20;;;359.20;2329.60;;;;;;5031705;28;20036;-56
2022/04/24 05:35:57;;;;;;;4.53;3.22;;;359.20;2329.60;;;;;;5031785;28;20148;-57
2022/04/24 05:38:23;;;;;;;4.38;2.33;;;359.20;2329.60;;;;;;5032182;28;20087;-55
2022/04/24 05:40:48;;;;;;;5.78;3.65;;;359.00;2329.60;;;;;;5031982;28;20064;-54
2022/04/24 05:43:15;;;;;;;5.80;3.13;;;359.10;2329.60;;;;;;5031838;28;20034;-55
2022/04/24 05:45:40;;;;;;;3.95;2.50;;;359.10;2329.60;;;;;;5031947;28;20021;-58
2022/04/24 05:48:06;;;;;;;6.32;3.65;;;359.20;2329.60;;;;;;5031666;28;20071;-58
2022/04/24 05:50:33;;;;;;;4.20;3.13;;;384.00;2329.60;;;;;;5031928;28;20091;-54
2022/04/24 05:52:59;;;;;;;8.00;6.18;;;384.00;2329.60;;;;;;5031503;28;20036;-56
2022/04/24 05:55:25;;;;;;;5.95;4.72;;;359.20;2329.60;;;;;;5031877;28;20022;-56
2022/04/24 05:57:52;;;;;;;11.73;6.18;;;384.00;2329.60;;;;;;5031410;28;20108;-57
2022/04/24 06:00:18;;;;;;;13.88;8.05;;;384.10;2329.60;;;;;;5030959;28;20017;-58
2022/04/24 06:02:44;;;;;;;8.55;5.47;;;384.90;2329.60;;;;;;5031416;28;20029;-58
2022/04/24 06:05:10;;;;;;;11.13;6.97;;;410.20;2355.20;;;;;;5031574;28;20025;-58
2022/04/24 06:07:37;;;;;;;17.70;9.70;;;409.80;2355.20;;;;;;5031421;28;20032;-61
2022/04/24 06:10:04;;;;;;;15.55;9.68;;;409.70;2355.20;;;;;;5031365;28;20472;-56
2022/04/24 06:12:29;;;;;;;17.52;9.07;;;409.90;2355.20;;;;;;5031738;28;20040;-57
2022/04/24 06:15:02;;;;;;;16.98;10.27;;;435.50;2355.20;;;;;;5031443;28;20391;-57
2022/04/24 06:17:28;;;;;;;16.10;10.73;;;460.80;2380.80;;;;;;5031216;28;20025;-59
2022/04/24 06:19:53;;;;;;;21.52;11.65;;;461.00;2380.80;;;;;;5031519;28;20380;-58
2022/04/24 06:22:19;;;;;;;16.25;12.55;;;486.40;2380.80;;;;;;5031065;28;20045;-59
2022/04/24 06:24:49;;;;;;;18.60;12.35;;;486.90;2227.20;;;;;;5030854;28;20486;-59
2022/04/24 06:27:15;;;;;;;15.65;10.32;;;487.20;2176.00;;;;;;5031010;28;20026;-58
2022/04/24 06:29:41;;;;;;;24.45;15.18;;;487.30;2150.40;;;;;;5031406;28;20029;-59
2022/04/24 06:32:08;;;;;;;20.92;13.43;;;486.70;2304.00;;;;;;5030976;28;20022;-61
2022/04/24 06:34:34;;;;;;;19.80;14.10;;;486.80;2252.80;;;;;;5030764;28;20492;-62
2022/04/24 06:37:00;;;;;;;13.77;9.30;;;487.30;2252.80;;;;;;5030973;28;20048;-62
2022/04/24 06:39:25;;;;;;;7.15;4.53;;;512.80;1868.80;;;;;;5030824;28;20096;-56
2022/04/24 06:41:51;;;;;;;7.22;3.63;;;538.40;1715.20;;;;;;5030960;28;20034;-59
2022/04/24 06:44:17;;;;;;;18.00;13.52;;;563.80;1612.80;;;;;;5030123;28;20028;-58
2022/04/24 06:46:46;;;;;;;22.10;14.80;;;563.60;1817.60;;;;;;5029613;28;20052;-59
2022/04/24 06:49:12;;;;;;;24.05;17.08;;;538.50;1843.20;;;;;;5030771;28;20029;-58
2022/04/24 06:51:38;;;;;;;26.23;17.13;;;563.60;1843.20;;;;;;5030696;28;20091;-56
2022/04/24 06:54:04;;;;;;;25.63;17.90;;;589.10;1817.60;;;;;;5030444;28;20353;-58
2022/04/24 06:56:29;;;;;;;21.48;14.90;;;614.80;1664.00;;;;;;5030273;28;20060;-57
2022/04/24 06:58:55;;;;;;;23.10;16.23;;;614.70;1689.60;;;;;;5030876;28;20373;-59
2022/04/24 07:01:22;;;;;;;31.67;22.15;;;640.00;1664.00;;;;;;5030686;28;20033;-58
2022/04/24 07:03:48;;;;;;;6.43;5.57;;;640.90;1612.80;;;;;;5030303;28;20029;-58
2022/04/24 07:06:14;;;;;;;7.05;3.28;;;640.70;1356.80;;;;;;5030481;28;20549;-58
2022/04/24 07:08:40;;;;;;;4.10;3.40;;;640.10;1331.20;;;;;;5030213;28;20117;-57
2022/04/24 07:11:06;;;;;;;5.93;3.17;;;640.10;1356.80;;;;;;5030448;28;20080;-58
2022/04/24 07:13:32;;;;;;;6.72;5.55;;;640.10;1356.80;;;;;;5030592;28;20017;-58
2022/04/24 07:15:57;;;;;;;3.80;3.13;;;640.80;1331.20;;;;;;5030083;28;20464;-62
2022/04/24 07:18:23;;;;;;;6.43;3.90;;;640.90;1305.60;;;;;;5030590;28;20410;-58
2022/04/24 07:20:49;;;;;;;4.28;3.25;;;640.60;1305.60;;;;;;5030150;28;20472;-58
2022/04/24 07:23:15;;;;;;;14.27;9.18;;;665.60;1280.00;;;;;;5029826;28;20026;-59
2022/04/24 07:25:45;;;;;;;15.95;8.93;;;665.60;1280.00;;;;;;5030462;28;20034;-58
2022/04/24 07:28:12;;;;;;;19.80;11.68;;;640.90;1228.80;;;;;;5030225;28;20032;-59
2022/04/24 07:30:38;;;;;;;20.25;11.15;;;665.80;1280.00;;;;;;5029888;28;20029;-58
2022/04/24 07:33:04;;;;;;;14.80;9.40;;;666.10;1254.40;;;;;;5030091;28;20021;-58
2022/04/24 07:35:32;;;;;;;5.90;3.88;;;691.60;1228.80;;;;;;5029803;28;20057;-58
2022/04/24 07:37:58;;;;;;;6.63;2.67;;;666.50;1203.20;;;;;;5029903;28;20031;-58
2022/04/24 07:40:28;;;;;;;4.95;3.95;;;666.20;1228.80;;;;;;5030169;28;20029;-58
2022/04/24 07:43:05;;;;;;;15.95;9.45;;;666.10;1228.80;;;;;;5030210;28;20060;-58
2022/04/24 07:45:51;;;;;;;5.20;4.05;;;665.90;1228.80;;;;;;5030008;28;20021;-58
2022/04/24 07:48:18;;;;;;;4.07;2.85;;;665.70;1203.20;;;;;;5029857;28;20025;-58
2022/04/24 07:50:51;;;;;;;4.65;2.95;;;666.00;1203.20;;;;;;5029915;28;20471;-60
2022/04/24 07:53:19;;;;;;;7.70;4.60;;;640.90;1203.20;;;;;;5029748;28;20380;-58
2022/04/24 07:55:46;;;;;;;3.70;2.42;;;640.40;1228.80;;;;;;5030486;28;20064;-58
2022/04/24 07:58:13;;;;;;;3.85;2.70;;;640.10;1254.40;;;;;;5034034;28;20083;-58
2022/04/24 08:00:40;;;;;;;4.28;2.15;;;615.20;1254.40;;;;;;5033650;28;20079;-61
2022/04/24 08:03:10;;;;;;;3.58;2.70;;;615.00;1305.60;;;;;;5033856;28;20108;-57
2022/04/24 08:05:40;;;;;;;5.15;3.05;;;614.80;1305.60;;;;;;5033980;28;20038;-57
2022/04/24 08:08:14;;;;;;;6.65;3.47;;;614.70;1305.60;;;;;;5033496;28;20021;-57
2022/04/24 08:10:41;;;;;;;3.45;2.38;;;614.70;1305.60;;;;;;5033739;28;20025;-56
2022/04/24 08:13:08;;;;;;;3.55;2.63;;;614.70;1305.60;;;;;;5033599;28;20116;-57
2022/04/24 08:15:36;;;;;;;4.18;3.35;;;614.70;1331.20;;;;;;5033451;28;20025;-57
2022/04/24 08:18:04;;;;;;;5.55;3.35;;;614.50;1305.60;;;;;;5033579;28;20028;-60
2022/04/24 08:20:32;;;;;;;4.00;2.65;;;614.50;1305.60;;;;;;5033407;28;20040;-63
2022/04/24 08:22:59;;;;;;;6.13;2.58;;;589.70;1305.60;;;;;;5033341;28;20034;-57
2022/04/24 08:25:26;;;;;;;4.78;3.30;;;589.60;1305.60;;;;;;5033532;28;20025;-57
2022/04/24 08:27:55;;;;;;;3.08;1.63;;;589.60;1305.60;;;;;;5033639;28;20100;-57
2022/04/24 08:30:22;;;;;;;2.38;1.70;;;589.60;1305.60;;;;;;5032200;28;20109;-57
2022/04/24 08:32:49;;;;;;;3.50;1.73;;;614.40;1331.20;;;;;;5033074;28;20052;-61
2022/04/24 08:35:17;;;;;;;3.28;1.95;;;589.50;1305.60;;;;;;5033117;28;20481;-57
2022/04/24 08:37:44;;;;;;;3.17;1.77;;;589.60;1331.20;;;;;;5033581;28;20022;-56
2022/04/24 08:40:12;;;;;;;4.63;2.38;;;589.70;1331.20;;;;;;5033285;28;20104;-60
2022/04/24 08:42:39;;;;;;;3.13;1.35;;;614.50;1331.20;;;;;;5032993;28;20415;-57
2022/04/24 08:45:08;;;;;;;4.10;1.83;;;589.60;1331.20;;;;;;5030699;28;20076;-57
2022/04/24 08:47:34;;;;;;;2.67;1.77;;;589.40;1356.80;;;;;;5031597;28;20036;-58
2022/04/24 08:50:01;;;;;;;6.03;2.60;;;589.40;1356.80;;;;;;5031234;28;20414;-58
2022/04/24 08:52:30;;;;;;;3.30;2.00;;;589.60;1356.80;;;;;;5031132;28;20026;-59
2022/04/24 08:54:58;;;;;;;5.50;3.45;;;589.70;1356.80;;;;;;5031172;28;20022;-61
2022/04/24 08:57:26;;;;;;;5.53;2.63;;;589.60;1356.80;;;;;;5030844;28;20026;-63
2022/04/24 08:59:58;;;;;;;5.15;3.60;;;589.40;1356.80;;;;;;5030976;28;20475;-57
2022/04/24 09:02:24;;;;;;;7.60;5.03;;;589.50;1382.40;;;;;;5031053;28;20033;-60
2022/04/24 09:04:52;;;;;;;10.90;6.50;;;589.40;1382.40;;;;;;5030867;28;20379;-57
2022/04/24 09:07:19;;;;;;;11.75;6.53;;;589.30;1408.00;;;;;;5030279;28;20361;-55
2022/04/24 09:09:50;;;;;;;13.90;8.20;;;589.30;1408.00;;;;;;5030934;28;20021;-58
2022/04/24 09:12:28;;;;;;;6.60;4.00;;;589.40;1408.00;;;;;;5030437;28;20025;-58
2022/04/24 09:14:58;;;;;;;17.90;10.23;;;589.40;1433.60;;;;;;5031250;28;20100;-58
2022/04/24 09:17:26;;;;;;;19.40;11.32;;;589.40;1408.00;;;;;;5030719;28;20105;-57
2022/04/24 09:19:52;;;;;;;7.68;4.72;;;589.40;1433.60;;;;;;5030760;28;20124;-62
2022/04/24 09:22:18;;;;;;;10.30;7.40;;;589.30;1408.00;;;;;;5030471;28;20055;-57
2022/04/24 09:24:54;;;;;;;4.82;2.78;;;589.40;1408.00;;;;;;5030040;28;20052;-56
2022/04/24 09:27:24;;;;;;;6.20;3.72;;;589.40;1408.00;;;;;;5030572;28;20107;-60
2022/04/24 09:30:09;;;;;;;5.53;3.35;;;589.50;1408.00;;;;;;5030860;28;20026;-57
2022/04/24 09:32:47;;;;;;;3.95;2.30;;;589.60;1459.20;;;;;;5030418;28;20492;-57
2022/04/24 09:35:31;;;;;;;1.98;1.50;;;589.70;1484.80;;;;;;5030561;28;20104;-57
2022/04/24 09:38:13;;;;;;;6.25;3.28;;;589.70;1561.60;;;;;;5029820;28;20111;-56
2022/04/24 09:40:49;;;;;;;3.05;2.17;;;589.70;1510.40;;;;;;5030440;28;20042;-57
2022/04/24 09:43:17;;;;;;;6.70;4.20;;;614.60;1536.00;;;;;;5030289;28;20033;-57
2022/04/24 09:45:56;;;;;;;3.78;2.65;;;614.50;1484.80;;;;;;5030515;28;20025;-58
2022/04/24 09:48:23;;;;;;;5.32;2.88;;;614.80;1536.00;;;;;;5030302;28;20549;-57
2022/04/24 09:50:50;;;;;;;4.65;2.42;;;615.00;1536.00;;;;;;5029698;28;20489;-58
2022/04/24 09:53:19;;;;;;;4.28;2.53;;;615.20;1408.00;;;;;;5030003;28;20025;-57
2022/04/24 09:55:45;;;;;;;7.90;4.53;;;640.00;1356.80;;;;;;5030215;28;20070;-58
2022/04/24 09:58:15;;;;;;;6.53;3.92;;;640.10;1382.40;;;;;;5030087;28;20030;-56
2022/04/24 10:00:42;;;;;;;7.07;4.47;;;640.20;1382.40;;;;;;5029827;28;20064;-57
2022/04/24 10:03:15;;;;;;;8.40;4.97;;;640.10;1484.80;;;;;;5029216;28;20030;-58
2022/04/24 10:05:46;;;;;;;7.75;4.82;;;640.20;1510.40;;;;;;5029933;28;20026;-56
2022/04/24 10:08:13;;;;;;;7.28;3.92;;;640.20;1433.60;;;;;;5028243;28;20109;-56
2022/04/24 10:10:39;;;;;;;5.60;3.00;;;640.10;1356.80;;;;;;5029573;28;20055;-60
2022/04/24 10:13:07;;;;;;;7.65;4.45;;;640.10;1331.20;;;;;;5029899;28;20475;-59
2022/04/24 10:15:34;;;;;;;5.78;3.28;;;640.20;1356.80;;;;;;5029158;28;20101;-57
2022/04/24 10:18:14;;;;;;;7.93;4.43;;;640.10;1356.80;;;;;;5029627;28;20025;-56
2022/04/24 10:21:08;;;;;;;6.53;3.05;;;640.10;1356.80;;;;;;5028370;28;20042;-56
2022/04/24 10:23:36;;;;;;;6.88;3.65;;;640.50;1331.20;;;;;;5029637;28;20036;-57
2022/04/24 10:26:03;;;;;;;5.82;3.90;;;640.00;1356.80;;;;;;5029413;28;20025;-57
2022/04/24 10:28:40;;;;;;;4.50;2.58;;;640.50;1356.80;;;;;;5028903;28;20021;-57
2022/04/24 10:31:07;;;;;;;5.00;3.00;;;615.20;1382.40;;;;;;5029432;28;20124;-57
2022/04/24 10:33:35;;;;;;;5.00;2.55;;;615.00;1382.40;;;;;;5029294;28;20068;-56
2022/04/24 10:36:14;;;;;;;7.35;3.50;;;615.20;1382.40;;;;;;5029180;28;20446;-56
2022/04/24 10:38:52;;;;;;;6.00;2.85;;;640.00;1382.40;;;;;;5029199;28;20109;-57
2022/04/24 10:41:23;;;;;;;8.38;4.18;;;640.30;1356.80;;;;;;5028964;28;20041;-57
2022/04/24 10:43:52;;;;;;;10.27;6.38;;;640.00;1356.80;;;;;;5028865;28;20101;-59
2022/04/24 10:46:26;;;;;;;8.50;4.85;;;640.10;1356.80;;;;;;5028940;28;20059;-57
2022/04/24 10:48:52;;;;;;;10.48;5.50;;;640.10;1408.00;;;;;;5029118;28;20022;-56
2022/04/24 10:51:32;;;;;;;6.20;3.20;;;640.20;1433.60;;;;;;5028806;28;20538;-57
2022/04/24 10:54:00;;;;;;;4.90;3.80;;;640.00;1408.00;;;;;;5028781;28;20026;-59
2022/04/24 10:56:27;;;;;;;5.78;3.22;;;640.00;1433.60;;;;;;5028548;28;20058;-58
2022/04/24 10:58:53;;;;;;;5.45;3.40;;;640.00;1459.20;;;;;;5029127;28;20048;-57
2022/04/24 11:01:19;;;;;;;5.45;3.08;;;640.20;1433.60;;;;;;5028638;28;20083;-58
2022/04/24 11:03:46;;;;;;;5.43;3.22;;;640.00;1433.60;;;;;;5028785;28;20435;-61
2022/04/24 11:06:23;;;;;;;4.35;2.67;;;615.30;1536.00;;;;;;5028791;28;20037;-60
2022/04/24 11:08:50;;;;;;;5.55;3.45;;;640.00;1536.00;;;;;;5027480;28;20437;-58
2022/04/24 11:11:18;;;;;;;6.03;2.97;;;640.30;1510.40;;;;;;5028831;28;20100;-62
2022/04/24 11:13:44;;;;;;;3.92;2.47;;;615.10;1510.40;;;;;;5028734;28;20049;-62
2022/04/24 11:16:12;;;;;;;4.55;2.30;;;614.90;1561.60;;;;;;5027403;28;20484;-61
2022/04/24 11:18:37;;;;;;;5.07;3.97;;;614.90;1561.60;;;;;;5028471;28;20022;-58
2022/04/24 11:21:05;;;;;;;5.32;3.53;;;640.00;1561.60;;;;;;5028155;28;20029;-59
2022/04/24 11:23:38;;;;;;;7.35;3.67;;;640.00;1536.00;;;;;;5028646;28;20026;-58
2022/04/24 11:26:08;;;;;;;;;;;640.40;1536.00;;;;;;5029082;28;20791;-59
2022/04/24 11:28:34;;;;;;;5.40;3.40;;;640.60;1510.40;;;;;;5028655;28;19912;-58
2022/04/24 11:31:19;;;;;;;3.70;2.25;;;665.60;1536.00;;;;;;5028353;28;20375;-60
2022/04/24 11:33:58;;;;;;;3.75;2.33;;;640.50;1484.80;;;;;;5028058;28;20553;-58
2022/04/24 11:36:31;;;;;;;4.72;3.20;;;640.60;1484.80;;;;;;5028624;28;20466;-59
2022/04/24 11:38:57;;;;;;;4.88;2.60;;;665.80;1459.20;;;;;;5026191;28;20480;-57
2022/04/24 11:41:27;;;;;;;3.20;2.20;;;665.90;1459.20;;;;;;5028911;28;20041;-56
2022/04/24 11:50:13;;;;;;;3.92;1.92;;;666.10;1459.20;;;;;;5025317;28;20088;-61
2022/04/24 11:52:41;;;;;;;2.92;2.22;;;666.30;1433.60;;;;;;5026225;28;20033;-70
2022/04/24 11:55:08;;;;;;;3.45;2.00;;;665.90;1433.60;;;;;;5024263;28;20538;-57
2022/04/24 11:57:35;;;;;;;3.45;2.40;;;665.60;1459.20;;;;;;5027312;28;20492;-56
2022/04/24 12:00:04;;;;;;;4.20;2.80;;;666.30;1433.60;;;;;;5026982;28;20052;-57
2022/04/24 12:02:30;;;;;;;4.80;2.72;;;665.80;1459.20;;;;;;5024541;28;20124;-56
2022/04/24 12:04:56;;;;;;;3.20;2.10;;;665.70;1459.20;;;;;;5026931;28;20155;-57
2022/04/24 12:07:31;;;;;;;3.78;2.40;;;666.20;1459.20;;;;;;5027081;28;20026;-55
2022/04/24 12:10:09;;;;;;;8.65;4.05;;;666.30;1510.40;;;;;;5026015;28;20051;-59
2022/04/24 12:12:47;;;;;;;5.75;3.45;;;666.40;1459.20;;;;;;5028047;28;20030;-56
2022/04/24 12:15:15;;;;;;;9.27;6.47;;;666.50;1433.60;;;;;;5028237;28;20026;-58
2022/04/24 12:17:55;;;;;;;4.28;2.95;;;666.00;1433.60;;;;;;5028235;28;20033;-57
2022/04/24 12:20:33;;;;;;;3.30;1.88;;;640.90;1433.60;;;;;;5028202;28;20033;-56
2022/04/24 12:23:11;;;;;;;4.78;3.55;;;665.60;1433.60;;;;;;5027724;28;20116;-62
2022/04/24 12:25:55;;;;;;;6.72;5.75;;;666.00;1459.20;;;;;;5027830;28;20392;-57